Avon, IL (61415)

8:19 AM CDT on August 31, 2015 (GMT -0500)
Little Swan Lake. | | Change Station
CLOSE
Current Station
Personal Weather Station
Location: Roseville, IL
Elevation: 663 ft
Nearby Weather Stations

Elev 663 ft 40.67 °N, 90.53 °W | Updated 5 minutes ago

Fog
Fog
71.6 °F
Feels Like 71.6 °F
N
0.0
Wind Variable Wind from East

Today
High -- | Low -- °F
--% Chance of Precip.
Yesterday
High -- | Low -- °F
Precip. -- in
6:27 AM 7:35 PM
Waning Gibbous, 95% visible
Pressure 30.07 in
Visibility 2.5 miles
Clouds Scattered Clouds 200 ft
Dew Point 68 °F
Humidity 88%
Rainfall 0.00 in
Snow Depth Not available.
UV 1 out of 12
Pollen 10.60 out of 12
Air Quality Not available.
Flu Activity Not available.
METAR KMQB 311255Z AUTO 00000KT 2 1/2SM BR SCT002 18/18 A3007 RMK AO2 T01810181
Pressure 30.07 in
Visibility 2.5 miles
Clouds Scattered Clouds 200 ft
Dew Point 68 °F
Humidity 88%
Rainfall 0.00 in
Snow Depth Not available.
UV 1 out of 12
Pollen 10.60 out of 12
Air Quality Not available.
Flu Activity Not available.
METAR KMQB 311255Z AUTO 00000KT 2 1/2SM BR SCT002 18/18 A3007 RMK AO2 T01810181

10-Day Weather Forecast

×

Almanac

Astronomy

Aug. 31, 2015 Rise Set
Actual Time
Civil Twilight
Nautical Twilight
Astronomical Twilight
Moon
Length of Visible Light
Length of Day
Tomorrow will be .
, % of the Moon is Illuminated

Today's Extremes

State Highs State Lows

Community

WunderPhotos

Upload Photos

1,851,226 photos uploaded!

WunderBlogs® & News

Nearby

Air Quality

  Air Quality AQ Index Pollutant
Not available.

Snow Depth

Station Depth Elevation

Earthquake Activity

City Distance Mag. Time & Date
Minimum magnitude displayed is 2.5.

Coastal Water Temperatures

Place Temperature

Stations

Nearby Weather Stations

Station Location Temp. Windchill Dew Point Humidity Wind Precip. Elev Updated Type